Aeroporto :
LOGIN :

Iscrizione | Disclaimer

   EN    FR    IT 

 










Sommario :    VFR   VFR Marginale   IFR   IFR Intensivo   IFR Molto Intensivo
Visibilità : 
Base nubi : 
>= 8 km
>= 3000ft
5 / 8 km
1000 / 3000 ft
1500m / 5 km
500 / 1000 ft
800 / 1500m
200 / 500 ft
< 800m
< 200 ft
Simboli :   Temporali  Nebbia  Neve Forte  Precipitazioni Forti  Vento > 20 kt
SIGMETs :   Varie  Temporali  Ghiacco  Turbolenza  Onda orograficha  Ceneri Vulcaniche






- Altitudine del aeroporto : 755 ft
- Codice IATA : KSC


LZKZ - Kosice

ULTIMO METAR :
  • 232030Z 36005KT 9999 BKN047 08/06 Q1006 NOSIG

METARs OBSOLETI :
  • 232000Z 02005KT 9999 OVC045 08/06 Q1007 NOSIG
  • 231930Z VRB01KT 9999 FEW038 OVC043 08/05 Q1007 NOSIG
  • 231900Z 19005KT 9999 OVC040 08/05 Q1007 NOSIG
  • 231830Z 22003KT 9999 OVC043 08/05 Q1007 NOSIG
  • 231800Z 19004KT 9999 -RA FEW037 BKN044 08/05 Q1007 NOSIG
  • 231730Z 19004KT 9999 OVC043 08/06 Q1007 NOSIG
  • 231700Z 19007KT 9999 FEW035 OVC046 08/06 Q1006 NOSIG
  • 231630Z 20008KT 9999 OVC031 09/06 Q1006 NOSIG
  • 231600Z 19008KT 9999 SCT020 BKN030 09/06 Q1006 NOSIG

TAF TAF LZKZ
Valido dal 23 a 18 ore il 24 a 18 ore UTC


231715Z 2318/2418 20007KT 9999 OVC023
TEMPO 2318/2321 2500 BR OVC006
TEMPO 2404/2414 20015KT -RA BKN018 OVC027
PROB40
TEMPO 2406/2410 5000 RA OVC013
BECMG 2410/2412 FEW013 BKN030



MetMap, La meteo Aeronautica in un colpo d'occhio ! - Copyright ORBIFLY Dicembre 2007 - Disclaimer

ORBIFLY MET'MAP TEAM :

Programmazione e sviluppo : Alexandra Zaïnal
Concezione : Baudouin d'Aumeries
Supporto tecnico e logistico : Manuel Goepfert
Aiuto : Marc-Olivier Méhu
Aiuto per la traduzione : Arnaldo La Scala




FONTI E CREDITI :

   NOAA